createdAt,value
2023-04-25T00:02:14.570Z,10.35
2023-04-25T00:04:41.259Z,14.05
2023-04-25T00:07:07.959Z,14.70
2023-04-25T00:09:34.482Z,14.17
2023-04-25T00:12:02.437Z,14.63
2023-04-25T00:14:30.615Z,9.93
2023-04-25T00:16:57.162Z,14.57
2023-04-25T00:19:23.603Z,16.52
2023-04-25T00:21:50.044Z,13.20
2023-04-25T00:24:16.582Z,13.13
2023-04-25T00:26:46.013Z,12.98
2023-04-25T00:29:12.469Z,13.35
2023-04-25T00:31:38.959Z,11.95
2023-04-25T00:34:05.519Z,14.13
2023-04-25T00:36:32.436Z,12.23
2023-04-25T00:38:58.859Z,12.18
2023-04-25T00:41:27.095Z,14.40
2023-04-25T00:43:55.598Z,14.07
2023-04-25T00:46:22.204Z,16.13
2023-04-25T00:48:48.672Z,13.10
2023-04-25T00:51:19.094Z,13.20
2023-04-25T00:53:46.261Z,13.20
2023-04-25T00:56:13.287Z,13.82
2023-04-25T00:58:41.233Z,11.73
2023-04-25T01:01:09.151Z,10.60
2023-04-25T01:03:41.842Z,14.68
2023-04-25T01:06:10.260Z,10.57
2023-04-25T01:08:38.847Z,10.05
2023-04-25T01:11:06.015Z,12.53
2023-04-25T01:13:34.081Z,11.15
2023-04-25T01:16:01.051Z,11.43
2023-04-25T01:18:27.811Z,10.32
2023-04-25T01:20:54.944Z,10.73
2023-04-25T01:23:22.583Z,12.93
2023-04-25T01:25:50.469Z,13.05
2023-04-25T01:28:17.431Z,13.02
2023-04-25T01:30:44.277Z,13.13
2023-04-25T01:33:12.216Z,9.88
2023-04-25T01:35:38.719Z,17.47
2023-04-25T01:38:05.193Z,11.77
2023-04-25T01:40:32.953Z,10.95
2023-04-25T01:42:59.423Z,12.25
2023-04-25T01:45:26.170Z,11.77
2023-04-25T01:47:52.694Z,11.97
2023-04-25T01:50:19.866Z,12.88
2023-04-25T01:52:46.316Z,13.48
2023-04-25T01:55:12.770Z,12.40
2023-04-25T01:57:39.498Z,16.75
2023-04-25T02:00:07.930Z,10.93
2023-04-25T02:02:34.551Z,13.35
2023-04-25T02:05:01.100Z,12.27
2023-04-25T02:07:27.884Z,12.55
2023-04-25T02:09:54.270Z,14.15
2023-04-25T02:12:20.698Z,11.47
2023-04-25T02:14:47.099Z,12.05
2023-04-25T02:17:13.708Z,12.52
2023-04-25T02:19:40.462Z,11.43
2023-04-25T02:22:06.965Z,10.25
2023-04-25T02:24:34.694Z,10.37
2023-04-25T02:27:01.812Z,14.13
2023-04-25T02:29:28.271Z,11.30
2023-04-25T02:31:54.869Z,12.20
2023-04-25T02:34:21.456Z,17.05
2023-04-25T02:36:50.588Z,12.00
2023-04-25T02:39:17.289Z,14.98
2023-04-25T02:41:43.752Z,12.15
2023-04-25T02:44:10.156Z,10.75
2023-04-25T02:46:39.335Z,10.07
2023-04-25T02:49:07.076Z,11.97
2023-04-25T02:51:33.669Z,9.90
2023-04-25T02:54:00.326Z,12.18
2023-04-25T02:56:27.267Z,13.02
2023-04-25T02:58:54.709Z,9.85
2023-04-25T03:01:21.442Z,11.93
2023-04-25T03:03:48.063Z,8.77
2023-04-25T03:06:14.994Z,11.05
2023-04-25T03:08:41.392Z,10.50
2023-04-25T03:11:07.883Z,10.98
2023-04-25T03:13:34.504Z,10.03
2023-04-25T03:16:02.096Z,11.20
2023-04-25T03:18:28.666Z,8.68
2023-04-25T03:20:55.247Z,11.18
2023-04-25T03:23:22.180Z,7.18
2023-04-25T03:25:48.695Z,12.43
2023-04-25T03:28:15.391Z,9.10
2023-04-25T03:30:41.788Z,8.35
2023-04-25T03:33:08.273Z,8.60
2023-04-25T03:35:34.816Z,9.90
2023-04-25T03:38:01.235Z,12.53
2023-04-25T03:40:27.712Z,11.23
2023-04-25T03:42:54.169Z,9.10
2023-04-25T03:45:20.714Z,8.05
2023-04-25T03:47:47.213Z,11.77
2023-04-25T03:50:13.781Z,14.27
2023-04-25T03:52:40.194Z,9.50
2023-04-25T03:55:07.039Z,9.98
2023-04-25T03:57:33.440Z,13.10
2023-04-25T03:59:59.943Z,8.02
2023-04-25T04:02:26.546Z,9.07
2023-04-25T04:04:53.338Z,5.90
2023-04-25T04:07:20.024Z,9.63
2023-04-25T04:09:46.485Z,8.07
2023-04-25T04:12:12.964Z,6.78
2023-04-25T04:14:39.407Z,7.30
2023-04-25T04:17:07.068Z,9.40
2023-04-25T04:19:33.497Z,7.88
2023-04-25T04:21:59.931Z,6.30
2023-04-25T04:24:26.359Z,6.78
2023-04-25T04:26:53.079Z,5.03
2023-04-25T04:29:22.241Z,7.15
2023-04-25T04:31:50.584Z,6.95
2023-04-25T04:34:18.913Z,7.47
2023-04-25T04:36:47.194Z,8.63
2023-04-25T04:39:14.238Z,6.37
2023-04-25T04:41:40.884Z,6.70
2023-04-25T04:44:09.989Z,7.75
2023-04-25T04:46:38.848Z,9.60
2023-04-25T04:49:09.769Z,8.63
2023-04-25T04:51:36.561Z,5.93
2023-04-25T04:54:03.757Z,9.50
2023-04-25T04:56:32.002Z,8.65
2023-04-25T04:58:59.071Z,6.50
2023-04-25T05:01:27.095Z,7.03
2023-04-25T05:03:54.036Z,6.90
2023-04-25T05:06:21.045Z,6.50
2023-04-25T05:08:47.525Z,7.53
2023-04-25T05:11:14.020Z,5.82
2023-04-25T05:13:40.565Z,7.70
2023-04-25T05:16:07.181Z,7.63
2023-04-25T05:18:33.646Z,6.20
2023-04-25T05:21:00.122Z,7.30
2023-04-25T05:23:28.764Z,4.80
2023-04-25T05:25:55.394Z,5.55
2023-04-25T05:28:22.183Z,5.73
2023-04-25T05:30:49.146Z,4.95
2023-04-25T05:33:16.337Z,8.32
2023-04-25T05:35:43.142Z,5.68
2023-04-25T05:38:09.601Z,11.13
2023-04-25T05:40:36.132Z,5.47
2023-04-25T05:43:02.565Z,5.15
2023-04-25T05:45:29.016Z,6.30
2023-04-25T05:47:55.545Z,7.00
2023-04-25T05:50:22.221Z,8.10
2023-04-25T05:52:48.700Z,5.50
2023-04-25T05:55:15.901Z,6.70
2023-04-25T05:57:43.407Z,7.43
2023-04-25T06:00:10.740Z,6.78
2023-04-25T06:02:37.294Z,5.50
2023-04-25T06:05:04.694Z,4.63
2023-04-25T06:07:31.868Z,7.65
2023-04-25T06:09:58.698Z,7.00
2023-04-25T06:12:25.120Z,4.47
2023-04-25T06:14:51.527Z,4.50
2023-04-25T06:17:17.995Z,5.60
2023-04-25T06:19:44.513Z,6.38
2023-04-25T06:22:11.201Z,8.45
2023-04-25T06:24:37.661Z,6.22
2023-04-25T06:27:04.092Z,7.03
2023-04-25T06:29:30.544Z,6.53
2023-04-25T06:31:58.077Z,6.85
2023-04-25T06:34:25.093Z,6.45
2023-04-25T06:36:53.527Z,6.70
2023-04-25T06:39:21.107Z,5.20
2023-04-25T06:41:47.499Z,7.27
2023-04-25T06:44:13.936Z,6.93
2023-04-25T06:46:40.477Z,4.70
2023-04-25T06:49:07.076Z,5.05
2023-04-25T06:51:33.555Z,5.28
2023-04-25T06:54:00.077Z,6.60
2023-04-25T06:56:26.530Z,5.30
2023-04-25T06:58:53.101Z,7.07
2023-04-25T07:01:19.832Z,6.35
2023-04-25T07:03:46.553Z,7.25
2023-04-25T07:06:13.103Z,8.27
2023-04-25T07:08:39.700Z,5.20
2023-04-25T07:11:06.488Z,10.13
2023-04-25T07:13:32.928Z,8.95
2023-04-25T07:16:00.803Z,6.28
2023-04-25T07:18:27.292Z,7.53
2023-04-25T07:20:53.717Z,6.40
2023-04-25T07:23:20.154Z,6.70
2023-04-25T07:25:46.656Z,5.57
2023-04-25T07:28:13.269Z,7.93
2023-04-25T07:30:39.686Z,6.13
2023-04-25T07:33:06.449Z,6.72
2023-04-25T07:35:32.889Z,5.38
2023-04-25T07:37:59.984Z,4.47
2023-04-25T07:40:26.548Z,5.32
2023-04-25T07:42:53.149Z,6.47
2023-04-25T07:45:19.648Z,8.63
2023-04-25T07:47:46.165Z,6.95
2023-04-25T07:50:12.781Z,7.65
2023-04-25T07:52:39.187Z,8.98
2023-04-25T07:55:06.089Z,8.27
2023-04-25T07:57:32.490Z,9.35
2023-04-25T07:59:59.007Z,7.20
2023-04-25T08:02:29.280Z,5.18
2023-04-25T08:04:56.296Z,4.45
2023-04-25T08:07:22.901Z,7.10
2023-04-25T08:09:49.609Z,5.95
2023-04-25T08:12:16.097Z,9.48
2023-04-25T08:14:42.535Z,6.88
2023-04-25T08:17:08.976Z,6.15
2023-04-25T08:19:35.563Z,6.13
2023-04-25T08:22:02.232Z,7.95
2023-04-25T08:24:28.685Z,7.50
2023-04-25T08:26:56.728Z,4.70
2023-04-25T08:29:24.944Z,9.10
2023-04-25T08:31:51.720Z,8.70
2023-04-25T08:34:18.174Z,7.05
2023-04-25T08:36:44.668Z,8.82
2023-04-25T08:39:11.344Z,7.78
2023-04-25T08:41:38.526Z,4.03
2023-04-25T08:44:06.499Z,6.67
2023-04-25T08:46:33.603Z,5.30
2023-04-25T08:49:02.599Z,4.30
2023-04-25T08:51:32.786Z,4.55
2023-04-25T08:54:28.079Z,5.07
2023-04-25T08:57:02.765Z,4.40
2023-04-25T08:59:29.491Z,3.75
2023-04-25T09:01:56.314Z,5.90
2023-04-25T09:04:22.821Z,5.15
2023-04-25T09:06:49.304Z,3.40
2023-04-25T09:09:15.892Z,5.83
2023-04-25T09:11:42.539Z,4.28
2023-04-25T09:14:13.105Z,7.18
2023-04-25T09:16:58.115Z,4.78
2023-04-25T09:19:38.960Z,5.10
2023-04-25T09:22:08.049Z,7.47
2023-04-25T09:24:36.372Z,2.92
2023-04-25T09:27:11.780Z,4.75
2023-04-25T09:29:40.274Z,6.00
2023-04-25T09:32:24.542Z,4.72
2023-04-25T09:34:54.192Z,4.13
2023-04-25T09:37:25.877Z,3.60
2023-04-25T09:40:00.254Z,3.08
2023-04-25T09:42:29.750Z,4.68
2023-04-25T09:44:57.267Z,5.50
2023-04-25T09:47:25.751Z,5.37
2023-04-25T09:49:54.029Z,4.85
2023-04-25T09:52:25.194Z,3.65
2023-04-25T09:54:53.058Z,2.22
2023-04-25T09:57:20.515Z,2.33
2023-04-25T09:59:48.370Z,5.63
2023-04-25T10:02:18.339Z,2.50
2023-04-25T10:04:49.711Z,3.80
2023-04-25T10:07:18.347Z,3.55
2023-04-25T10:09:48.216Z,4.43
2023-04-25T10:12:15.747Z,4.80
2023-04-25T10:14:43.303Z,3.80
2023-04-25T10:17:12.512Z,4.80
2023-04-25T10:19:38.921Z,4.25
2023-04-25T10:22:21.025Z,3.65
2023-04-25T10:24:48.018Z,4.13
2023-04-25T10:27:15.297Z,4.70
2023-04-25T10:29:44.271Z,4.30
2023-04-25T10:32:10.804Z,3.95
2023-04-25T10:34:47.974Z,5.18
2023-04-25T10:37:14.557Z,5.53
2023-04-25T10:39:44.787Z,4.85
2023-04-25T10:42:12.425Z,3.72
2023-04-25T10:44:40.695Z,5.28
2023-04-25T10:47:08.677Z,3.42
2023-04-25T10:49:37.544Z,2.50
2023-04-25T10:52:25.716Z,3.17
2023-04-25T10:54:54.525Z,4.18
2023-04-25T10:57:27.763Z,4.47
2023-04-25T10:59:54.363Z,4.40
2023-04-25T11:02:20.994Z,4.10
2023-04-25T11:04:48.709Z,5.75
2023-04-25T11:07:34.452Z,3.60
2023-04-25T11:10:04.802Z,4.65
2023-04-25T11:12:33.957Z,3.92
2023-04-25T11:15:08.354Z,3.13
2023-04-25T11:17:35.388Z,5.05
2023-04-25T11:20:02.016Z,5.13
2023-04-25T11:22:28.876Z,4.30
2023-04-25T11:24:55.371Z,4.82
2023-04-25T11:27:22.388Z,5.03
2023-04-25T11:29:49.103Z,3.20
2023-04-25T11:32:18.022Z,4.13
2023-04-25T11:34:48.608Z,4.57
2023-04-25T11:37:15.255Z,3.95
2023-04-25T11:39:47.062Z,3.37
2023-04-25T11:42:14.222Z,4.05
2023-04-25T11:44:41.758Z,3.30
2023-04-25T11:47:08.236Z,4.97
2023-04-25T11:49:36.088Z,3.65
2023-04-25T11:52:02.540Z,3.50
2023-04-25T11:54:28.929Z,3.78
2023-04-25T11:56:55.441Z,5.43
2023-04-25T11:59:26.216Z,6.47
2023-04-25T12:01:53.303Z,5.03
2023-04-25T12:04:21.418Z,4.97
2023-04-25T12:06:50.652Z,8.63
2023-04-25T12:09:25.365Z,6.38
2023-04-25T12:11:59.807Z,5.25
2023-04-25T12:14:28.682Z,4.25
2023-04-25T12:17:00.502Z,3.73
2023-04-25T12:19:27.733Z,4.57
2023-04-25T12:21:58.742Z,6.20
2023-04-25T12:24:28.391Z,3.53
2023-04-25T12:27:00.237Z,3.55
2023-04-25T12:29:34.573Z,3.77
2023-04-25T12:32:05.455Z,3.15
2023-04-25T12:34:33.277Z,3.50
2023-04-25T12:36:59.707Z,4.97
2023-04-25T12:39:26.799Z,4.97
2023-04-25T12:41:54.906Z,5.60
2023-04-25T12:44:22.419Z,5.40
2023-04-25T12:46:49.570Z,6.07
2023-04-25T12:49:19.421Z,4.32
2023-04-25T12:51:46.169Z,2.78
2023-04-25T12:54:12.695Z,4.63
2023-04-25T12:56:39.527Z,4.35
2023-04-25T12:59:05.998Z,3.85
2023-04-25T13:01:34.694Z,4.10
2023-04-25T13:04:02.935Z,3.28
2023-04-25T13:06:31.045Z,4.60
2023-04-25T13:08:57.583Z,2.55
2023-04-25T13:11:24.028Z,5.57
2023-04-25T13:13:50.608Z,6.82
2023-04-25T13:16:17.554Z,3.13
2023-04-25T13:18:44.062Z,4.63
2023-04-25T13:21:12.420Z,5.65
2023-04-25T13:23:38.982Z,7.43
2023-04-25T13:26:05.490Z,4.75
2023-04-25T13:28:31.876Z,4.50
2023-04-25T13:30:58.977Z,3.43
2023-04-25T13:33:25.404Z,6.03
2023-04-25T13:35:54.619Z,4.70
2023-04-25T13:38:22.435Z,4.30
2023-04-25T13:40:49.894Z,5.78
2023-04-25T13:43:16.349Z,7.20
2023-04-25T13:45:42.971Z,6.70
2023-04-25T13:48:09.426Z,3.60
2023-04-25T13:50:36.296Z,3.90
2023-04-25T13:53:02.713Z,4.95
2023-04-25T13:55:29.302Z,3.80
2023-04-25T13:57:55.784Z,3.28
2023-04-25T14:00:22.395Z,3.63
2023-04-25T14:02:50.792Z,6.30
2023-04-25T14:05:17.509Z,6.43
2023-04-25T14:07:43.978Z,5.57
2023-04-25T14:10:10.694Z,5.85
2023-04-25T14:12:37.131Z,5.13
2023-04-25T14:15:04.338Z,5.38
2023-04-25T14:17:30.974Z,4.88
2023-04-25T14:19:57.457Z,4.60
2023-04-25T14:22:23.905Z,2.63
2023-04-25T14:24:50.322Z,3.38
2023-04-25T14:27:16.783Z,4.45
2023-04-25T14:29:43.851Z,3.50
2023-04-25T14:32:10.373Z,3.47
2023-04-25T14:34:36.833Z,5.00
2023-04-25T14:37:03.371Z,5.65
2023-04-25T14:39:29.784Z,4.22
2023-04-25T14:41:57.070Z,4.30
2023-04-25T14:44:23.496Z,2.50
2023-04-25T14:46:52.548Z,3.15
2023-04-25T14:49:19.159Z,3.83
2023-04-25T14:51:45.664Z,2.58
2023-04-25T14:54:13.031Z,5.55
2023-04-25T14:56:39.448Z,4.10
2023-04-25T14:59:05.854Z,4.38
2023-04-25T15:01:32.733Z,3.47
2023-04-25T15:03:59.990Z,3.55
2023-04-25T15:06:28.090Z,5.55
2023-04-25T15:08:54.536Z,5.27
2023-04-25T15:11:21.517Z,3.42
2023-04-25T15:13:48.069Z,3.60
2023-04-25T15:16:14.509Z,5.72
2023-04-25T15:18:41.672Z,5.00
2023-04-25T15:21:08.390Z,5.07
2023-04-25T15:23:34.812Z,5.97
2023-04-25T15:26:01.303Z,3.75
2023-04-25T15:28:27.732Z,5.30
2023-04-25T15:30:54.536Z,4.18
2023-04-25T15:33:21.105Z,3.53
2023-04-25T15:35:47.570Z,3.83
2023-04-25T15:38:13.968Z,5.72
2023-04-25T15:40:41.481Z,6.68
2023-04-25T15:43:08.318Z,6.15
2023-04-25T15:45:35.916Z,6.80
2023-04-25T15:48:02.455Z,5.13
2023-04-25T15:50:28.957Z,4.15
2023-04-25T15:52:55.432Z,3.97
2023-04-25T15:55:22.442Z,4.13
2023-04-25T15:57:50.518Z,3.60
2023-04-25T16:00:17.767Z,4.38
2023-04-25T16:02:46.489Z,4.97
2023-04-25T16:05:14.560Z,6.65
2023-04-25T16:07:43.132Z,5.80
2023-04-25T16:10:11.489Z,6.07
2023-04-25T16:12:39.434Z,5.45
2023-04-25T16:15:06.409Z,3.67
2023-04-25T16:17:33.392Z,4.93
2023-04-25T16:20:01.878Z,5.55
2023-04-25T16:22:28.440Z,4.67
2023-04-25T16:24:54.942Z,6.25
2023-04-25T16:27:22.011Z,4.88
2023-04-25T16:29:50.352Z,7.40
2023-04-25T16:32:16.933Z,4.32
2023-04-25T16:34:43.941Z,4.57
2023-04-25T16:37:11.025Z,5.65
2023-04-25T16:39:37.520Z,6.22
2023-04-25T16:42:04.966Z,5.32
2023-04-25T16:44:31.652Z,6.68
2023-04-25T16:46:58.111Z,4.03
2023-04-25T16:49:24.687Z,5.57
2023-04-25T16:51:51.827Z,6.88
2023-04-25T16:54:18.273Z,5.30
2023-04-25T16:56:44.694Z,5.97
2023-04-25T16:59:11.450Z,5.83
2023-04-25T17:01:37.946Z,6.57
2023-04-25T17:04:04.559Z,6.75
2023-04-25T17:06:31.101Z,4.43
2023-04-25T17:08:57.505Z,6.80
2023-04-25T17:11:23.968Z,6.80
2023-04-25T17:13:51.099Z,5.88
2023-04-25T17:16:22.919Z,5.65
2023-04-25T17:18:51.455Z,5.10
2023-04-25T17:21:18.360Z,6.28
2023-04-25T17:23:45.762Z,6.17
2023-04-25T17:26:13.285Z,4.53
2023-04-25T17:28:41.826Z,8.93
2023-04-25T17:31:08.716Z,8.13
2023-04-25T17:33:35.129Z,6.53
2023-04-25T17:36:01.617Z,7.27
2023-04-25T17:38:28.431Z,8.82
2023-04-25T17:40:55.078Z,7.45
2023-04-25T17:43:21.541Z,7.43
2023-04-25T17:45:48.029Z,7.65
2023-04-25T17:48:14.543Z,7.20
2023-04-25T17:50:41.169Z,6.80
2023-04-25T17:53:07.896Z,7.00
2023-04-25T17:55:34.524Z,4.88
2023-04-25T17:58:00.997Z,4.70
2023-04-25T18:00:27.826Z,8.37
2023-04-25T18:02:54.286Z,6.90
2023-04-25T18:05:20.885Z,6.22
2023-04-25T18:07:47.351Z,11.55
2023-04-25T18:10:14.737Z,9.32
2023-04-25T18:12:41.580Z,6.13
2023-04-25T18:15:09.260Z,7.63
2023-04-25T18:17:42.536Z,6.35
2023-04-25T18:20:15.771Z,13.73
2023-04-25T18:22:44.502Z,7.35
2023-04-25T18:25:11.605Z,6.50
2023-04-25T18:27:39.110Z,9.23
2023-04-25T18:30:08.847Z,6.93
2023-04-25T18:32:35.425Z,8.70
2023-04-25T18:35:02.067Z,6.45
2023-04-25T18:37:28.763Z,7.90
2023-04-25T18:39:55.296Z,6.05
2023-04-25T18:42:22.282Z,7.78
2023-04-25T18:44:48.693Z,7.57
2023-04-25T18:47:15.424Z,9.18
2023-04-25T18:49:42.064Z,4.87
2023-04-25T18:52:10.618Z,7.80
2023-04-25T18:54:37.366Z,8.77
2023-04-25T18:57:06.027Z,7.80
2023-04-25T18:59:33.448Z,6.82
2023-04-25T19:02:04.363Z,10.83
2023-04-25T19:04:31.031Z,8.40
2023-04-25T19:06:57.819Z,5.40
2023-04-25T19:09:24.917Z,11.88
2023-04-25T19:11:51.518Z,9.98
2023-04-25T19:14:17.989Z,8.87
2023-04-25T19:16:44.554Z,5.65
2023-04-25T19:19:11.476Z,7.63
2023-04-25T19:21:38.022Z,8.75
2023-04-25T19:24:05.448Z,11.48
2023-04-25T19:26:32.568Z,7.37
2023-04-25T19:29:11.360Z,8.55
2023-04-25T19:31:39.466Z,10.27
2023-04-25T19:34:07.580Z,11.20
2023-04-25T19:36:34.666Z,10.73
2023-04-25T19:39:03.740Z,7.87
2023-04-25T19:41:32.030Z,10.07
2023-04-25T19:44:00.904Z,10.48
2023-04-25T19:46:27.442Z,9.65
2023-04-25T19:48:53.866Z,12.43
2023-04-25T19:51:21.017Z,7.27
2023-04-25T19:53:47.453Z,7.85
2023-04-25T19:56:14.047Z,6.18
2023-04-25T19:58:40.564Z,9.70
2023-04-25T20:01:07.690Z,7.53
2023-04-25T20:03:34.392Z,7.40
2023-04-25T20:06:00.919Z,10.55
2023-04-25T20:08:27.352Z,8.73
2023-04-25T20:10:53.871Z,11.65
2023-04-25T20:13:20.251Z,8.63
2023-04-25T20:15:46.890Z,8.27
2023-04-25T20:18:13.761Z,8.35
2023-04-25T20:20:40.483Z,7.28
2023-04-25T20:23:06.957Z,9.25
2023-04-25T20:25:33.394Z,10.52
2023-04-25T20:28:00.031Z,9.73
2023-04-25T20:30:26.709Z,9.77
2023-04-25T20:32:53.186Z,12.05
2023-04-25T20:35:19.679Z,7.82
2023-04-25T20:37:46.525Z,13.55
2023-04-25T20:40:13.396Z,8.23
2023-04-25T20:42:39.827Z,12.15
2023-04-25T20:45:13.651Z,9.73
2023-04-25T20:47:41.026Z,8.02
2023-04-25T20:50:08.396Z,7.35
2023-04-25T20:52:35.328Z,10.07
2023-04-25T20:55:02.063Z,12.88
2023-04-25T20:57:29.287Z,8.95
2023-04-25T20:59:55.700Z,12.10
2023-04-25T21:02:22.614Z,9.18
2023-04-25T21:04:49.080Z,10.53
2023-04-25T21:07:15.616Z,11.30
2023-04-25T21:09:45.661Z,10.10
2023-04-25T21:12:12.412Z,11.90
2023-04-25T21:14:38.949Z,11.40
2023-04-25T21:17:05.740Z,8.33
2023-04-25T21:19:32.326Z,10.52
2023-04-25T21:21:59.244Z,12.27
2023-04-25T21:24:27.141Z,10.30
2023-04-25T21:26:53.625Z,9.82
2023-04-25T21:29:20.092Z,9.50
2023-04-25T21:31:46.723Z,9.43
2023-04-25T21:34:13.266Z,8.13
2023-04-25T21:36:41.187Z,8.45
2023-04-25T21:39:07.710Z,9.95
2023-04-25T21:41:34.203Z,12.60
2023-04-25T21:44:00.624Z,10.75
2023-04-25T21:46:27.093Z,9.63
2023-04-25T21:48:54.000Z,11.07
2023-04-25T21:51:20.897Z,11.52
2023-04-25T21:53:47.405Z,14.87
2023-04-25T21:56:13.816Z,10.68
2023-04-25T21:58:40.266Z,13.43
2023-04-25T22:01:06.890Z,10.35
2023-04-25T22:03:34.118Z,11.27
2023-04-25T22:06:01.196Z,8.13
2023-04-25T22:08:27.665Z,13.60
2023-04-25T22:10:55.202Z,9.52
2023-04-25T22:13:22.699Z,14.73
2023-04-25T22:15:49.428Z,9.70
2023-04-25T22:18:16.368Z,9.90
2023-04-25T22:20:44.252Z,10.65
2023-04-25T22:23:12.045Z,10.02
2023-04-25T22:25:38.669Z,12.07
2023-04-25T22:28:05.262Z,10.55
2023-04-25T22:30:32.619Z,12.30
2023-04-25T22:32:59.079Z,12.95
2023-04-25T22:35:25.644Z,9.93
2023-04-25T22:37:52.452Z,11.95
2023-04-25T22:40:19.063Z,12.13
2023-04-25T22:42:45.587Z,11.63
2023-04-25T22:45:12.242Z,14.18
2023-04-25T22:47:39.792Z,12.40
2023-04-25T22:50:12.204Z,10.65
2023-04-25T22:52:38.997Z,10.93
2023-04-25T22:55:06.514Z,12.13
2023-04-25T22:57:33.073Z,10.07
2023-04-25T22:59:59.491Z,12.30
2023-04-25T23:02:26.150Z,9.05
2023-04-25T23:04:55.632Z,9.65
2023-04-25T23:07:22.152Z,8.13
2023-04-25T23:09:49.254Z,8.85
2023-04-25T23:12:21.477Z,7.85
2023-04-25T23:14:52.711Z,11.63
2023-04-25T23:17:20.344Z,9.38
2023-04-25T23:19:46.777Z,8.53
2023-04-25T23:22:13.239Z,10.90
2023-04-25T23:24:40.472Z,9.52
2023-04-25T23:27:07.106Z,9.55
2023-04-25T23:29:34.608Z,8.32
2023-04-25T23:32:04.336Z,10.67
2023-04-25T23:34:31.599Z,12.55
2023-04-25T23:37:01.167Z,9.65
2023-04-25T23:39:28.107Z,12.48
2023-04-25T23:41:54.521Z,11.07
2023-04-25T23:44:20.993Z,10.97
2023-04-25T23:46:47.489Z,11.80
2023-04-25T23:49:13.935Z,11.38
2023-04-25T23:51:40.340Z,10.15
2023-04-25T23:54:06.745Z,12.00
2023-04-25T23:56:33.122Z,11.47
2023-04-25T23:58:59.540Z,10.52
